sensor_id;sensor_type;location;lat;lon;timestamp;P1;durP1;ratioP1;P2;durP2;ratioP2
39094;SDS011;24840;47.508;19.376;2022-12-10T00:00:20;22.70;;;16.33;;
39094;SDS011;24840;47.508;19.376;2022-12-10T00:02:45;21.80;;;15.70;;
39094;SDS011;24840;47.508;19.376;2022-12-10T00:05:11;17.27;;;14.50;;
39094;SDS011;24840;47.508;19.376;2022-12-10T00:10:59;21.95;;;14.48;;
39094;SDS011;24840;47.508;19.376;2022-12-10T00:13:28;14.93;;;13.30;;
39094;SDS011;24840;47.508;19.376;2022-12-10T00:15:53;19.77;;;14.13;;
39094;SDS011;24840;47.508;19.376;2022-12-10T00:18:19;16.73;;;13.63;;
39094;SDS011;24840;47.508;19.376;2022-12-10T00:20:45;18.20;;;12.80;;
39094;SDS011;24840;47.508;19.376;2022-12-10T00:23:10;14.33;;;12.20;;
39094;SDS011;24840;47.508;19.376;2022-12-10T00:25:36;17.07;;;13.30;;
39094;SDS011;24840;47.508;19.376;2022-12-10T00:28:02;16.47;;;12.53;;
39094;SDS011;24840;47.508;19.376;2022-12-10T00:30:28;16.53;;;13.70;;
39094;SDS011;24840;47.508;19.376;2022-12-10T00:32:54;14.07;;;11.40;;
39094;SDS011;24840;47.508;19.376;2022-12-10T00:35:20;14.03;;;11.67;;
39094;SDS011;24840;47.508;19.376;2022-12-10T00:41:08;18.37;;;11.27;;
39094;SDS011;24840;47.508;19.376;2022-12-10T00:43:34;14.53;;;11.90;;
39094;SDS011;24840;47.508;19.376;2022-12-10T00:46:00;11.77;;;10.00;;
39094;SDS011;24840;47.508;19.376;2022-12-10T00:52:02;11.83;;;9.53;;
39094;SDS011;24840;47.508;19.376;2022-12-10T00:54:27;17.20;;;11.73;;
39094;SDS011;24840;47.508;19.376;2022-12-10T00:56:53;14.97;;;9.67;;
39094;SDS011;24840;47.508;19.376;2022-12-10T01:02:41;13.53;;;9.67;;
39094;SDS011;24840;47.508;19.376;2022-12-10T01:05:07;12.23;;;8.17;;
39094;SDS011;24840;47.508;19.376;2022-12-10T01:07:33;11.33;;;9.40;;
39094;SDS011;24840;47.508;19.376;2022-12-10T01:09:58;17.67;;;9.47;;
39094;SDS011;24840;47.508;19.376;2022-12-10T01:12:24;13.47;;;10.33;;
39094;SDS011;24840;47.508;19.376;2022-12-10T01:14:50;14.87;;;11.70;;
39094;SDS011;24840;47.508;19.376;2022-12-10T01:17:16;18.40;;;12.80;;
39094;SDS011;24840;47.508;19.376;2022-12-10T01:19:42;15.20;;;11.63;;
39094;SDS011;24840;47.508;19.376;2022-12-10T01:25:29;21.53;;;14.07;;
39094;SDS011;24840;47.508;19.376;2022-12-10T01:27:56;13.40;;;10.83;;
39094;SDS011;24840;47.508;19.376;2022-12-10T01:30:21;14.07;;;9.17;;
39094;SDS011;24840;47.508;19.376;2022-12-10T01:32:47;11.63;;;9.93;;
39094;SDS011;24840;47.508;19.376;2022-12-10T01:35:13;13.73;;;10.03;;
39094;SDS011;24840;47.508;19.376;2022-12-10T01:37:39;16.07;;;11.73;;
39094;SDS011;24840;47.508;19.376;2022-12-10T01:40:05;16.80;;;11.30;;
39094;SDS011;24840;47.508;19.376;2022-12-10T01:42:31;16.37;;;11.80;;
39094;SDS011;24840;47.508;19.376;2022-12-10T01:44:57;20.53;;;14.60;;
39094;SDS011;24840;47.508;19.376;2022-12-10T01:47:27;19.80;;;14.03;;
39094;SDS011;24840;47.508;19.376;2022-12-10T01:49:53;23.37;;;15.27;;
39094;SDS011;24840;47.508;19.376;2022-12-10T01:52:19;20.83;;;12.83;;
39094;SDS011;24840;47.508;19.376;2022-12-10T01:54:45;35.47;;;17.70;;
39094;SDS011;24840;47.508;19.376;2022-12-10T01:57:45;27.77;;;15.23;;
39094;SDS011;24840;47.508;19.376;2022-12-10T02:00:04;28.98;;;17.77;;
39094;SDS011;24840;47.508;19.376;2022-12-10T02:05:23;26.80;;;16.40;;
39094;SDS011;24840;47.508;19.376;2022-12-10T02:13:17;32.77;;;17.27;;
39094;SDS011;24840;47.508;19.376;2022-12-10T02:15:52;27.03;;;16.10;;
39094;SDS011;24840;47.508;19.376;2022-12-10T02:18:34;24.20;;;15.13;;
39094;SDS011;24840;47.508;19.376;2022-12-10T02:23:36;26.27;;;16.47;;
39094;SDS011;24840;47.508;19.376;2022-12-10T02:28:50;25.67;;;15.97;;
39094;SDS011;24840;47.508;19.376;2022-12-10T02:31:32;20.50;;;14.30;;
39094;SDS011;24840;47.508;19.376;2022-12-10T02:33:59;21.60;;;13.33;;
39094;SDS011;24840;47.508;19.376;2022-12-10T02:39:52;22.43;;;15.17;;
39094;SDS011;24840;47.508;19.376;2022-12-10T02:42:21;28.27;;;13.67;;
39094;SDS011;24840;47.508;19.376;2022-12-10T02:44:50;22.20;;;14.20;;
39094;SDS011;24840;47.508;19.376;2022-12-10T02:47:17;16.60;;;11.80;;
39094;SDS011;24840;47.508;19.376;2022-12-10T02:49:44;20.43;;;13.47;;
39094;SDS011;24840;47.508;19.376;2022-12-10T02:52:13;17.63;;;11.43;;
39094;SDS011;24840;47.508;19.376;2022-12-10T02:54:46;21.37;;;13.77;;
39094;SDS011;24840;47.508;19.376;2022-12-10T03:02:23;16.23;;;12.47;;
39094;SDS011;24840;47.508;19.376;2022-12-10T03:07:41;14.32;;;11.13;;
39094;SDS011;24840;47.508;19.376;2022-12-10T03:10:28;22.67;;;13.23;;
39094;SDS011;24840;47.508;19.376;2022-12-10T03:13:04;21.20;;;12.37;;
39094;SDS011;24840;47.508;19.376;2022-12-10T03:15:34;17.57;;;13.13;;
39094;SDS011;24840;47.508;19.376;2022-12-10T03:18:02;18.80;;;12.40;;
39094;SDS011;24840;47.508;19.376;2022-12-10T03:20:30;18.90;;;12.43;;
39094;SDS011;24840;47.508;19.376;2022-12-10T03:22:58;16.60;;;11.13;;
39094;SDS011;24840;47.508;19.376;2022-12-10T03:28:51;16.83;;;11.63;;
39094;SDS011;24840;47.508;19.376;2022-12-10T03:31:21;20.40;;;11.67;;
39094;SDS011;24840;47.508;19.376;2022-12-10T03:33:48;19.43;;;12.53;;
39094;SDS011;24840;47.508;19.376;2022-12-10T03:36:14;19.87;;;12.77;;
39094;SDS011;24840;47.508;19.376;2022-12-10T03:38:41;16.30;;;13.17;;
39094;SDS011;24840;47.508;19.376;2022-12-10T03:41:08;14.13;;;11.73;;
39094;SDS011;24840;47.508;19.376;2022-12-10T03:43:34;13.40;;;12.00;;
39094;SDS011;24840;47.508;19.376;2022-12-10T03:46:00;10.83;;;8.83;;
39094;SDS011;24840;47.508;19.376;2022-12-10T03:48:28;19.73;;;8.87;;
39094;SDS011;24840;47.508;19.376;2022-12-10T03:50:54;11.63;;;9.27;;
39094;SDS011;24840;47.508;19.376;2022-12-10T03:53:20;11.10;;;9.83;;
39094;SDS011;24840;47.508;19.376;2022-12-10T03:55:46;10.07;;;8.63;;
39094;SDS011;24840;47.508;19.376;2022-12-10T03:58:11;12.47;;;8.67;;
39094;SDS011;24840;47.508;19.376;2022-12-10T04:00:37;10.37;;;9.20;;
39094;SDS011;24840;47.508;19.376;2022-12-10T04:03:03;10.93;;;8.73;;
39094;SDS011;24840;47.508;19.376;2022-12-10T04:05:28;13.47;;;9.40;;
39094;SDS011;24840;47.508;19.376;2022-12-10T04:11:16;10.43;;;8.63;;
39094;SDS011;24840;47.508;19.376;2022-12-10T04:13:42;9.80;;;8.50;;
39094;SDS011;24840;47.508;19.376;2022-12-10T04:16:27;12.97;;;10.27;;
39094;SDS011;24840;47.508;19.376;2022-12-10T04:18:54;16.47;;;9.50;;
39094;SDS011;24840;47.508;19.376;2022-12-10T04:21:21;13.53;;;10.47;;
39094;SDS011;24840;47.508;19.376;2022-12-10T04:24:06;13.43;;;10.57;;
39094;SDS011;24840;47.508;19.376;2022-12-10T04:30:20;13.33;;;10.03;;
39094;SDS011;24840;47.508;19.376;2022-12-10T04:32:46;15.30;;;11.23;;
39094;SDS011;24840;47.508;19.376;2022-12-10T04:35:11;14.60;;;11.00;;
39094;SDS011;24840;47.508;19.376;2022-12-10T04:37:37;14.63;;;11.60;;
39094;SDS011;24840;47.508;19.376;2022-12-10T04:40:04;13.37;;;11.03;;
39094;SDS011;24840;47.508;19.376;2022-12-10T04:45:55;15.30;;;11.47;;
39094;SDS011;24840;47.508;19.376;2022-12-10T04:48:21;13.40;;;11.40;;
39094;SDS011;24840;47.508;19.376;2022-12-10T04:50:47;13.00;;;11.50;;
39094;SDS011;24840;47.508;19.376;2022-12-10T04:53:13;14.87;;;12.03;;
39094;SDS011;24840;47.508;19.376;2022-12-10T04:55:38;13.53;;;11.47;;
39094;SDS011;24840;47.508;19.376;2022-12-10T04:58:04;11.90;;;10.07;;
39094;SDS011;24840;47.508;19.376;2022-12-10T05:00:30;15.17;;;10.73;;
39094;SDS011;24840;47.508;19.376;2022-12-10T05:06:18;11.83;;;9.63;;
39094;SDS011;24840;47.508;19.376;2022-12-10T05:08:44;13.73;;;11.03;;
39094;SDS011;24840;47.508;19.376;2022-12-10T05:11:12;12.63;;;10.57;;
39094;SDS011;24840;47.508;19.376;2022-12-10T05:13:40;11.37;;;10.00;;
39094;SDS011;24840;47.508;19.376;2022-12-10T05:16:07;15.87;;;12.20;;
39094;SDS011;24840;47.508;19.376;2022-12-10T05:18:34;13.40;;;11.03;;
39094;SDS011;24840;47.508;19.376;2022-12-10T05:21:02;12.20;;;10.53;;
39094;SDS011;24840;47.508;19.376;2022-12-10T05:23:29;12.70;;;11.33;;
39094;SDS011;24840;47.508;19.376;2022-12-10T05:28:41;12.23;;;10.50;;
39094;SDS011;24840;47.508;19.376;2022-12-10T05:31:16;13.10;;;10.40;;
39094;SDS011;24840;47.508;19.376;2022-12-10T05:33:44;13.60;;;11.73;;
39094;SDS011;24840;47.508;19.376;2022-12-10T05:36:10;13.00;;;10.53;;
39094;SDS011;24840;47.508;19.376;2022-12-10T05:38:39;12.77;;;10.73;;
39094;SDS011;24840;47.508;19.376;2022-12-10T05:41:06;15.23;;;11.10;;
39094;SDS011;24840;47.508;19.376;2022-12-10T05:43:36;13.70;;;10.67;;
39094;SDS011;24840;47.508;19.376;2022-12-10T05:46:02;13.07;;;11.10;;
39094;SDS011;24840;47.508;19.376;2022-12-10T05:48:30;13.40;;;11.13;;
39094;SDS011;24840;47.508;19.376;2022-12-10T05:50:56;22.73;;;15.73;;
39094;SDS011;24840;47.508;19.376;2022-12-10T05:53:22;28.10;;;17.20;;
39094;SDS011;24840;47.508;19.376;2022-12-10T05:55:48;47.57;;;24.93;;
39094;SDS011;24840;47.508;19.376;2022-12-10T05:58:14;14.67;;;11.70;;
39094;SDS011;24840;47.508;19.376;2022-12-10T06:00:40;13.27;;;11.37;;
39094;SDS011;24840;47.508;19.376;2022-12-10T06:03:07;16.73;;;12.87;;
39094;SDS011;24840;47.508;19.376;2022-12-10T06:05:39;15.80;;;12.20;;
39094;SDS011;24840;47.508;19.376;2022-12-10T06:08:06;15.07;;;12.13;;
39094;SDS011;24840;47.508;19.376;2022-12-10T06:10:35;13.17;;;10.80;;
39094;SDS011;24840;47.508;19.376;2022-12-10T06:13:02;15.33;;;11.13;;
39094;SDS011;24840;47.508;19.376;2022-12-10T06:15:28;14.53;;;11.93;;
39094;SDS011;24840;47.508;19.376;2022-12-10T06:17:55;20.37;;;12.93;;
39094;SDS011;24840;47.508;19.376;2022-12-10T06:23:43;14.27;;;11.03;;
39094;SDS011;24840;47.508;19.376;2022-12-10T06:26:12;14.90;;;10.77;;
39094;SDS011;24840;47.508;19.376;2022-12-10T06:28:41;16.88;;;11.98;;
39094;SDS011;24840;47.508;19.376;2022-12-10T06:31:07;18.23;;;13.67;;
39094;SDS011;24840;47.508;19.376;2022-12-10T06:33:36;13.77;;;11.97;;
39094;SDS011;24840;47.508;19.376;2022-12-10T06:36:03;15.83;;;13.00;;
39094;SDS011;24840;47.508;19.376;2022-12-10T06:38:30;18.13;;;13.10;;
39094;SDS011;24840;47.508;19.376;2022-12-10T06:40:56;18.37;;;12.73;;
39094;SDS011;24840;47.508;19.376;2022-12-10T06:43:28;13.70;;;11.00;;
39094;SDS011;24840;47.508;19.376;2022-12-10T06:45:54;17.33;;;13.43;;
39094;SDS011;24840;47.508;19.376;2022-12-10T06:48:23;17.07;;;13.30;;
39094;SDS011;24840;47.508;19.376;2022-12-10T06:50:49;15.27;;;12.43;;
39094;SDS011;24840;47.508;19.376;2022-12-10T06:53:15;15.43;;;12.00;;
39094;SDS011;24840;47.508;19.376;2022-12-10T06:55:41;19.27;;;14.10;;
39094;SDS011;24840;47.508;19.376;2022-12-10T06:58:07;17.13;;;13.93;;
39094;SDS011;24840;47.508;19.376;2022-12-10T07:00:33;17.53;;;13.93;;
39094;SDS011;24840;47.508;19.376;2022-12-10T07:02:59;20.73;;;15.23;;
39094;SDS011;24840;47.508;19.376;2022-12-10T07:05:27;19.43;;;14.73;;
39094;SDS011;24840;47.508;19.376;2022-12-10T07:07:52;18.87;;;14.37;;
39094;SDS011;24840;47.508;19.376;2022-12-10T07:10:18;18.50;;;15.20;;
39094;SDS011;24840;47.508;19.376;2022-12-10T07:16:16;20.67;;;15.27;;
39094;SDS011;24840;47.508;19.376;2022-12-10T07:18:50;23.83;;;18.13;;
39094;SDS011;24840;47.508;19.376;2022-12-10T07:21:17;21.57;;;14.80;;
39094;SDS011;24840;47.508;19.376;2022-12-10T07:23:55;19.30;;;15.80;;
39094;SDS011;24840;47.508;19.376;2022-12-10T07:26:25;19.07;;;16.53;;
39094;SDS011;24840;47.508;19.376;2022-12-10T07:28:54;19.80;;;16.20;;
39094;SDS011;24840;47.508;19.376;2022-12-10T07:31:20;17.77;;;15.57;;
39094;SDS011;24840;47.508;19.376;2022-12-10T07:33:47;19.63;;;16.13;;
39094;SDS011;24840;47.508;19.376;2022-12-10T07:36:16;15.80;;;13.73;;
39094;SDS011;24840;47.508;19.376;2022-12-10T07:38:45;19.60;;;16.13;;
39094;SDS011;24840;47.508;19.376;2022-12-10T07:41:12;17.13;;;14.07;;
39094;SDS011;24840;47.508;19.376;2022-12-10T07:43:42;20.13;;;15.13;;
39094;SDS011;24840;47.508;19.376;2022-12-10T07:46:13;18.07;;;14.97;;
39094;SDS011;24840;47.508;19.376;2022-12-10T07:48:41;18.20;;;15.20;;
39094;SDS011;24840;47.508;19.376;2022-12-10T07:51:08;18.87;;;14.13;;
39094;SDS011;24840;47.508;19.376;2022-12-10T07:53:34;21.20;;;15.83;;
39094;SDS011;24840;47.508;19.376;2022-12-10T07:56:01;20.90;;;16.63;;
39094;SDS011;24840;47.508;19.376;2022-12-10T07:58:27;20.97;;;16.33;;
39094;SDS011;24840;47.508;19.376;2022-12-10T08:00:53;21.53;;;16.90;;
39094;SDS011;24840;47.508;19.376;2022-12-10T08:03:19;23.47;;;17.37;;
39094;SDS011;24840;47.508;19.376;2022-12-10T08:05:45;21.63;;;16.60;;
39094;SDS011;24840;47.508;19.376;2022-12-10T08:08:11;21.47;;;17.37;;
39094;SDS011;24840;47.508;19.376;2022-12-10T08:10:37;22.60;;;17.07;;
39094;SDS011;24840;47.508;19.376;2022-12-10T08:13:04;21.90;;;17.57;;
39094;SDS011;24840;47.508;19.376;2022-12-10T08:15:30;24.83;;;19.13;;
39094;SDS011;24840;47.508;19.376;2022-12-10T08:17:57;20.87;;;17.03;;
39094;SDS011;24840;47.508;19.376;2022-12-10T08:20:23;22.27;;;18.93;;
39094;SDS011;24840;47.508;19.376;2022-12-10T08:22:49;18.97;;;16.53;;
39094;SDS011;24840;47.508;19.376;2022-12-10T08:25:16;20.10;;;15.70;;
39094;SDS011;24840;47.508;19.376;2022-12-10T08:31:04;26.83;;;19.47;;
39094;SDS011;24840;47.508;19.376;2022-12-10T08:33:35;32.20;;;19.43;;
39094;SDS011;24840;47.508;19.376;2022-12-10T08:36:02;34.50;;;21.47;;
39094;SDS011;24840;47.508;19.376;2022-12-10T08:38:29;24.27;;;19.57;;
39094;SDS011;24840;47.508;19.376;2022-12-10T08:40:55;21.90;;;17.40;;
39094;SDS011;24840;47.508;19.376;2022-12-10T08:43:21;25.87;;;18.93;;
39094;SDS011;24840;47.508;19.376;2022-12-10T08:45:48;28.93;;;20.23;;
39094;SDS011;24840;47.508;19.376;2022-12-10T08:48:14;26.80;;;18.33;;
39094;SDS011;24840;47.508;19.376;2022-12-10T08:54:02;20.60;;;15.83;;
39094;SDS011;24840;47.508;19.376;2022-12-10T08:56:28;19.30;;;15.17;;
39094;SDS011;24840;47.508;19.376;2022-12-10T08:58:58;29.03;;;26.07;;
39094;SDS011;24840;47.508;19.376;2022-12-10T09:01:31;40.93;;;21.33;;
39094;SDS011;24840;47.508;19.376;2022-12-10T09:06:31;17.67;;;14.77;;
39094;SDS011;24840;47.508;19.376;2022-12-10T09:08:56;25.87;;;20.03;;
39094;SDS011;24840;47.508;19.376;2022-12-10T09:11:29;25.57;;;16.10;;
39094;SDS011;24840;47.508;19.376;2022-12-10T09:13:57;15.70;;;13.40;;
39094;SDS011;24840;47.508;19.376;2022-12-10T09:16:35;17.70;;;13.80;;
39094;SDS011;24840;47.508;19.376;2022-12-10T09:19:01;18.83;;;13.53;;
39094;SDS011;24840;47.508;19.376;2022-12-10T09:21:28;25.23;;;18.73;;
39094;SDS011;24840;47.508;19.376;2022-12-10T09:23:55;18.47;;;14.93;;
39094;SDS011;24840;47.508;19.376;2022-12-10T09:26:22;16.10;;;12.82;;
39094;SDS011;24840;47.508;19.376;2022-12-10T09:28:48;13.40;;;12.00;;
39094;SDS011;24840;47.508;19.376;2022-12-10T09:31:14;15.07;;;13.10;;
39094;SDS011;24840;47.508;19.376;2022-12-10T09:33:42;17.50;;;12.10;;
39094;SDS011;24840;47.508;19.376;2022-12-10T09:36:09;15.63;;;11.57;;
39094;SDS011;24840;47.508;19.376;2022-12-10T09:38:37;12.80;;;11.10;;
39094;SDS011;24840;47.508;19.376;2022-12-10T09:41:05;18.30;;;14.03;;
39094;SDS011;24840;47.508;19.376;2022-12-10T09:51:42;23.40;;;14.93;;
39094;SDS011;24840;47.508;19.376;2022-12-10T09:54:28;17.67;;;13.50;;
39094;SDS011;24840;47.508;19.376;2022-12-10T09:56:59;17.50;;;14.90;;
39094;SDS011;24840;47.508;19.376;2022-12-10T09:59:34;16.37;;;12.53;;
39094;SDS011;24840;47.508;19.376;2022-12-10T10:02:21;17.75;;;13.90;;
39094;SDS011;24840;47.508;19.376;2022-12-10T10:07:31;18.03;;;13.73;;
39094;SDS011;24840;47.508;19.376;2022-12-10T10:12:45;18.23;;;13.70;;
39094;SDS011;24840;47.508;19.376;2022-12-10T10:15:16;17.10;;;13.87;;
39094;SDS011;24840;47.508;19.376;2022-12-10T10:17:47;19.30;;;15.53;;
39094;SDS011;24840;47.508;19.376;2022-12-10T10:20:14;23.00;;;16.23;;
39094;SDS011;24840;47.508;19.376;2022-12-10T10:22:40;19.53;;;14.83;;
39094;SDS011;24840;47.508;19.376;2022-12-10T10:25:13;18.67;;;14.73;;
39094;SDS011;24840;47.508;19.376;2022-12-10T10:27:42;22.07;;;15.83;;
39094;SDS011;24840;47.508;19.376;2022-12-10T10:30:18;18.97;;;15.00;;
39094;SDS011;24840;47.508;19.376;2022-12-10T10:32:50;20.10;;;15.63;;
39094;SDS011;24840;47.508;19.376;2022-12-10T10:35:33;21.60;;;16.60;;
39094;SDS011;24840;47.508;19.376;2022-12-10T10:38:17;18.95;;;16.13;;
39094;SDS011;24840;47.508;19.376;2022-12-10T10:40:55;23.00;;;16.87;;
39094;SDS011;24840;47.508;19.376;2022-12-10T10:43:24;23.20;;;17.17;;
39094;SDS011;24840;47.508;19.376;2022-12-10T10:46:06;23.23;;;17.23;;
39094;SDS011;24840;47.508;19.376;2022-12-10T10:48:36;23.90;;;17.98;;
39094;SDS011;24840;47.508;19.376;2022-12-10T10:53:41;20.47;;;16.70;;
39094;SDS011;24840;47.508;19.376;2022-12-10T10:56:15;23.53;;;17.23;;
39094;SDS011;24840;47.508;19.376;2022-12-10T11:01:18;23.02;;;17.05;;
39094;SDS011;24840;47.508;19.376;2022-12-10T11:03:49;16.93;;;14.30;;
39094;SDS011;24840;47.508;19.376;2022-12-10T11:06:19;18.17;;;14.10;;
39094;SDS011;24840;47.508;19.376;2022-12-10T11:08:46;19.60;;;13.53;;
39094;SDS011;24840;47.508;19.376;2022-12-10T11:11:20;18.20;;;14.77;;
39094;SDS011;24840;47.508;19.376;2022-12-10T11:13:50;24.13;;;17.57;;
39094;SDS011;24840;47.508;19.376;2022-12-10T11:16:21;26.83;;;20.17;;
39094;SDS011;24840;47.508;19.376;2022-12-10T11:18:52;25.52;;;18.17;;
39094;SDS011;24840;47.508;19.376;2022-12-10T11:21:27;23.90;;;18.47;;
39094;SDS011;24840;47.508;19.376;2022-12-10T11:23:55;24.10;;;16.88;;
39094;SDS011;24840;47.508;19.376;2022-12-10T11:26:40;20.50;;;15.70;;
39094;SDS011;24840;47.508;19.376;2022-12-10T11:37:31;23.80;;;15.83;;
39094;SDS011;24840;47.508;19.376;2022-12-10T11:51:19;21.40;;;16.90;;
39094;SDS011;24840;47.508;19.376;2022-12-10T12:13:57;23.30;;;17.07;;
39094;SDS011;24840;47.508;19.376;2022-12-10T12:16:42;23.13;;;16.77;;
39094;SDS011;24840;47.508;19.376;2022-12-10T12:19:21;22.90;;;18.33;;
39094;SDS011;24840;47.508;19.376;2022-12-10T12:24:53;24.40;;;19.65;;
39094;SDS011;24840;47.508;19.376;2022-12-10T12:27:27;23.00;;;19.07;;
39094;SDS011;24840;47.508;19.376;2022-12-10T12:30:12;24.67;;;19.03;;
39094;SDS011;24840;47.508;19.376;2022-12-10T12:36:02;24.93;;;17.50;;
39094;SDS011;24840;47.508;19.376;2022-12-10T12:44:09;27.63;;;21.20;;
39094;SDS011;24840;47.508;19.376;2022-12-10T12:46:55;31.77;;;22.93;;
39094;SDS011;24840;47.508;19.376;2022-12-10T12:49:32;33.03;;;23.83;;
39094;SDS011;24840;47.508;19.376;2022-12-10T12:54:59;37.07;;;24.67;;
39094;SDS011;24840;47.508;19.376;2022-12-10T12:57:43;34.40;;;22.50;;
39094;SDS011;24840;47.508;19.376;2022-12-10T13:00:18;30.93;;;22.67;;
39094;SDS011;24840;47.508;19.376;2022-12-10T13:05:37;30.27;;;21.70;;
39094;SDS011;24840;47.508;19.376;2022-12-10T13:13:34;31.13;;;22.20;;
39094;SDS011;24840;47.508;19.376;2022-12-10T13:16:53;34.73;;;24.70;;
39094;SDS011;24840;47.508;19.376;2022-12-10T13:29:46;29.47;;;23.03;;
39094;SDS011;24840;47.508;19.376;2022-12-10T13:42:33;29.80;;;21.47;;
39094;SDS011;24840;47.508;19.376;2022-12-10T13:47:46;30.23;;;21.93;;
39094;SDS011;24840;47.508;19.376;2022-12-10T13:59:06;31.17;;;22.13;;
39094;SDS011;24840;47.508;19.376;2022-12-10T14:10:13;42.53;;;26.50;;
39094;SDS011;24840;47.508;19.376;2022-12-10T14:12:42;52.97;;;28.10;;
39094;SDS011;24840;47.508;19.376;2022-12-10T14:15:20;48.10;;;27.97;;
39094;SDS011;24840;47.508;19.376;2022-12-10T14:17:59;47.00;;;25.40;;
39094;SDS011;24840;47.508;19.376;2022-12-10T14:20:32;39.97;;;23.13;;
39094;SDS011;24840;47.508;19.376;2022-12-10T14:23:04;36.10;;;23.27;;
39094;SDS011;24840;47.508;19.376;2022-12-10T14:26:11;33.00;;;22.10;;
39094;SDS011;24840;47.508;19.376;2022-12-10T14:28:56;33.07;;;21.73;;
39094;SDS011;24840;47.508;19.376;2022-12-10T14:31:31;36.03;;;23.20;;
39094;SDS011;24840;47.508;19.376;2022-12-10T14:34:13;42.90;;;23.53;;
39094;SDS011;24840;47.508;19.376;2022-12-10T14:36:46;30.97;;;22.27;;
39094;SDS011;24840;47.508;19.376;2022-12-10T14:39:14;35.15;;;22.88;;
39094;SDS011;24840;47.508;19.376;2022-12-10T14:41:44;34.50;;;20.83;;
39094;SDS011;24840;47.508;19.376;2022-12-10T14:44:13;29.60;;;20.63;;
39094;SDS011;24840;47.508;19.376;2022-12-10T14:46:41;42.70;;;24.93;;
39094;SDS011;24840;47.508;19.376;2022-12-10T14:49:21;28.93;;;21.63;;
39094;SDS011;24840;47.508;19.376;2022-12-10T14:51:49;40.58;;;24.70;;
39094;SDS011;24840;47.508;19.376;2022-12-10T14:56:54;35.83;;;22.53;;
39094;SDS011;24840;47.508;19.376;2022-12-10T14:59:21;28.10;;;20.20;;
39094;SDS011;24840;47.508;19.376;2022-12-10T15:01:55;27.87;;;20.67;;
39094;SDS011;24840;47.508;19.376;2022-12-10T15:04:24;27.80;;;20.67;;
39094;SDS011;24840;47.508;19.376;2022-12-10T15:07:04;28.27;;;21.70;;
39094;SDS011;24840;47.508;19.376;2022-12-10T15:09:32;25.57;;;19.87;;
39094;SDS011;24840;47.508;19.376;2022-12-10T15:11:58;25.50;;;19.57;;
39094;SDS011;24840;47.508;19.376;2022-12-10T15:14:25;25.37;;;19.33;;
39094;SDS011;24840;47.508;19.376;2022-12-10T15:16:53;25.83;;;19.80;;
39094;SDS011;24840;47.508;19.376;2022-12-10T15:21:50;28.70;;;19.90;;
39094;SDS011;24840;47.508;19.376;2022-12-10T15:24:21;23.57;;;18.30;;
39094;SDS011;24840;47.508;19.376;2022-12-10T15:26:52;29.83;;;21.13;;
39094;SDS011;24840;47.508;19.376;2022-12-10T15:31:47;27.90;;;18.63;;
39094;SDS011;24840;47.508;19.376;2022-12-10T15:34:14;23.50;;;19.30;;
39094;SDS011;24840;47.508;19.376;2022-12-10T15:37:23;24.47;;;19.37;;
39094;SDS011;24840;47.508;19.376;2022-12-10T15:39:30;30.47;;;19.80;;
39094;SDS011;24840;47.508;19.376;2022-12-10T15:42:27;30.27;;;21.80;;
39094;SDS011;24840;47.508;19.376;2022-12-10T15:44:58;35.63;;;20.83;;
39094;SDS011;24840;47.508;19.376;2022-12-10T15:47:29;27.63;;;19.47;;
39094;SDS011;24840;47.508;19.376;2022-12-10T15:49:57;26.60;;;19.60;;
39094;SDS011;24840;47.508;19.376;2022-12-10T15:52:28;29.13;;;20.33;;
39094;SDS011;24840;47.508;19.376;2022-12-10T15:54:55;32.53;;;22.07;;
39094;SDS011;24840;47.508;19.376;2022-12-10T16:00:00;29.20;;;21.20;;
39094;SDS011;24840;47.508;19.376;2022-12-10T16:02:36;28.58;;;21.67;;
39094;SDS011;24840;47.508;19.376;2022-12-10T16:05:10;48.30;;;21.57;;
39094;SDS011;24840;47.508;19.376;2022-12-10T16:07:36;28.88;;;19.50;;
39094;SDS011;24840;47.508;19.376;2022-12-10T16:10:03;34.20;;;20.57;;
39094;SDS011;24840;47.508;19.376;2022-12-10T16:12:29;29.73;;;22.27;;
39094;SDS011;24840;47.508;19.376;2022-12-10T16:14:56;28.57;;;20.77;;
39094;SDS011;24840;47.508;19.376;2022-12-10T16:17:28;28.03;;;21.27;;
39094;SDS011;24840;47.508;19.376;2022-12-10T16:20:17;25.77;;;20.00;;
39094;SDS011;24840;47.508;19.376;2022-12-10T16:22:50;28.93;;;20.77;;
39094;SDS011;24840;47.508;19.376;2022-12-10T16:25:16;27.60;;;20.13;;
39094;SDS011;24840;47.508;19.376;2022-12-10T16:27:41;31.73;;;21.10;;
39094;SDS011;24840;47.508;19.376;2022-12-10T16:30:28;26.57;;;20.90;;
39094;SDS011;24840;47.508;19.376;2022-12-10T16:33:00;27.45;;;20.52;;
39094;SDS011;24840;47.508;19.376;2022-12-10T16:35:26;29.37;;;20.57;;
39094;SDS011;24840;47.508;19.376;2022-12-10T16:37:52;25.23;;;19.47;;
39094;SDS011;24840;47.508;19.376;2022-12-10T16:40:21;23.73;;;18.90;;
39094;SDS011;24840;47.508;19.376;2022-12-10T16:42:48;25.40;;;19.57;;
39094;SDS011;24840;47.508;19.376;2022-12-10T16:45:21;26.17;;;19.97;;
39094;SDS011;24840;47.508;19.376;2022-12-10T16:47:58;28.63;;;21.67;;
39094;SDS011;24840;47.508;19.376;2022-12-10T16:50:24;27.07;;;20.90;;
39094;SDS011;24840;47.508;19.376;2022-12-10T16:52:51;26.63;;;21.03;;
39094;SDS011;24840;47.508;19.376;2022-12-10T16:55:18;27.33;;;19.73;;
39094;SDS011;24840;47.508;19.376;2022-12-10T16:57:46;26.17;;;20.93;;
39094;SDS011;24840;47.508;19.376;2022-12-10T17:00:14;28.20;;;20.90;;
39094;SDS011;24840;47.508;19.376;2022-12-10T17:02:47;30.37;;;22.07;;
39094;SDS011;24840;47.508;19.376;2022-12-10T17:05:15;30.90;;;21.97;;
39094;SDS011;24840;47.508;19.376;2022-12-10T17:08:02;33.17;;;22.73;;
39094;SDS011;24840;47.508;19.376;2022-12-10T17:10:28;28.57;;;22.60;;
39094;SDS011;24840;47.508;19.376;2022-12-10T17:13:13;34.73;;;26.20;;
39094;SDS011;24840;47.508;19.376;2022-12-10T17:15:48;32.47;;;23.40;;
39094;SDS011;24840;47.508;19.376;2022-12-10T17:18:15;31.47;;;23.47;;
39094;SDS011;24840;47.508;19.376;2022-12-10T17:20:45;29.10;;;22.03;;
39094;SDS011;24840;47.508;19.376;2022-12-10T17:23:12;30.63;;;22.43;;
39094;SDS011;24840;47.508;19.376;2022-12-10T17:25:38;32.67;;;22.53;;
39094;SDS011;24840;47.508;19.376;2022-12-10T17:28:05;30.77;;;22.67;;
39094;SDS011;24840;47.508;19.376;2022-12-10T17:30:31;27.70;;;20.77;;
39094;SDS011;24840;47.508;19.376;2022-12-10T17:32:57;28.40;;;22.97;;
39094;SDS011;24840;47.508;19.376;2022-12-10T17:35:23;25.83;;;21.13;;
39094;SDS011;24840;47.508;19.376;2022-12-10T17:37:48;27.90;;;21.40;;
39094;SDS011;24840;47.508;19.376;2022-12-10T17:40:19;29.13;;;20.33;;
39094;SDS011;24840;47.508;19.376;2022-12-10T17:42:46;28.40;;;22.30;;
39094;SDS011;24840;47.508;19.376;2022-12-10T17:45:13;33.40;;;23.57;;
39094;SDS011;24840;47.508;19.376;2022-12-10T17:47:40;32.40;;;24.77;;
39094;SDS011;24840;47.508;19.376;2022-12-10T17:53:01;31.73;;;24.17;;
39094;SDS011;24840;47.508;19.376;2022-12-10T17:55:28;34.30;;;25.90;;